sensor_id;sensor_type;location;lat;lon;timestamp;P1;durP1;ratioP1;P2;durP2;ratioP2
7657;SDS011;8462;53.156;8.220;2024-01-30T00:00:59;17.50;;;12.60;;
7657;SDS011;8462;53.156;8.220;2024-01-30T00:03:26;16.77;;;12.27;;
7657;SDS011;8462;53.156;8.220;2024-01-30T00:05:54;15.83;;;12.73;;
7657;SDS011;8462;53.156;8.220;2024-01-30T00:08:24;15.93;;;12.57;;
7657;SDS011;8462;53.156;8.220;2024-01-30T00:10:53;15.40;;;12.77;;
7657;SDS011;8462;53.156;8.220;2024-01-30T00:13:20;14.20;;;12.13;;
7657;SDS011;8462;53.156;8.220;2024-01-30T00:15:49;16.23;;;12.70;;
7657;SDS011;8462;53.156;8.220;2024-01-30T00:18:16;18.40;;;13.00;;
7657;SDS011;8462;53.156;8.220;2024-01-30T00:20:45;16.93;;;13.13;;
7657;SDS011;8462;53.156;8.220;2024-01-30T00:23:12;17.80;;;12.37;;
7657;SDS011;8462;53.156;8.220;2024-01-30T00:25:41;16.43;;;11.97;;
7657;SDS011;8462;53.156;8.220;2024-01-30T00:28:09;17.37;;;12.90;;
7657;SDS011;8462;53.156;8.220;2024-01-30T00:30:39;14.80;;;12.50;;
7657;SDS011;8462;53.156;8.220;2024-01-30T00:33:06;15.60;;;12.90;;
7657;SDS011;8462;53.156;8.220;2024-01-30T00:35:33;14.87;;;12.00;;
7657;SDS011;8462;53.156;8.220;2024-01-30T00:38:02;16.03;;;12.43;;
7657;SDS011;8462;53.156;8.220;2024-01-30T00:40:30;16.80;;;11.80;;
7657;SDS011;8462;53.156;8.220;2024-01-30T00:43:00;16.60;;;12.10;;
7657;SDS011;8462;53.156;8.220;2024-01-30T00:45:27;15.93;;;12.60;;
7657;SDS011;8462;53.156;8.220;2024-01-30T00:47:55;18.27;;;12.23;;
7657;SDS011;8462;53.156;8.220;2024-01-30T00:50:25;15.10;;;12.07;;
7657;SDS011;8462;53.156;8.220;2024-01-30T00:52:53;17.60;;;12.17;;
7657;SDS011;8462;53.156;8.220;2024-01-30T00:55:21;17.13;;;12.23;;
7657;SDS011;8462;53.156;8.220;2024-01-30T00:57:50;17.97;;;12.77;;
7657;SDS011;8462;53.156;8.220;2024-01-30T01:00:18;17.30;;;12.13;;
7657;SDS011;8462;53.156;8.220;2024-01-30T01:02:46;14.77;;;12.03;;
7657;SDS011;8462;53.156;8.220;2024-01-30T01:05:14;14.27;;;11.67;;
7657;SDS011;8462;53.156;8.220;2024-01-30T01:07:42;17.07;;;12.40;;
7657;SDS011;8462;53.156;8.220;2024-01-30T01:10:10;16.03;;;12.20;;
7657;SDS011;8462;53.156;8.220;2024-01-30T01:12:39;17.50;;;12.13;;
7657;SDS011;8462;53.156;8.220;2024-01-30T01:15:08;14.50;;;12.60;;
7657;SDS011;8462;53.156;8.220;2024-01-30T01:17:43;18.47;;;12.00;;
7657;SDS011;8462;53.156;8.220;2024-01-30T01:20:11;13.77;;;11.57;;
7657;SDS011;8462;53.156;8.220;2024-01-30T01:22:39;13.23;;;11.73;;
7657;SDS011;8462;53.156;8.220;2024-01-30T01:25:08;14.37;;;11.90;;
7657;SDS011;8462;53.156;8.220;2024-01-30T01:27:35;15.37;;;11.87;;
7657;SDS011;8462;53.156;8.220;2024-01-30T01:30:08;16.83;;;12.17;;
7657;SDS011;8462;53.156;8.220;2024-01-30T01:32:36;15.47;;;12.03;;
7657;SDS011;8462;53.156;8.220;2024-01-30T01:35:12;15.33;;;12.10;;
7657;SDS011;8462;53.156;8.220;2024-01-30T01:37:40;16.57;;;12.07;;
7657;SDS011;8462;53.156;8.220;2024-01-30T01:40:09;17.67;;;11.40;;
7657;SDS011;8462;53.156;8.220;2024-01-30T01:42:36;16.67;;;11.83;;
7657;SDS011;8462;53.156;8.220;2024-01-30T01:45:09;14.20;;;12.00;;
7657;SDS011;8462;53.156;8.220;2024-01-30T01:47:37;15.50;;;11.87;;
7657;SDS011;8462;53.156;8.220;2024-01-30T01:50:05;15.83;;;12.80;;
7657;SDS011;8462;53.156;8.220;2024-01-30T01:52:34;15.27;;;12.00;;
7657;SDS011;8462;53.156;8.220;2024-01-30T01:55:03;16.17;;;12.23;;
7657;SDS011;8462;53.156;8.220;2024-01-30T01:57:33;14.57;;;11.23;;
7657;SDS011;8462;53.156;8.220;2024-01-30T02:00:02;14.00;;;11.63;;
7657;SDS011;8462;53.156;8.220;2024-01-30T02:02:34;16.07;;;12.37;;
7657;SDS011;8462;53.156;8.220;2024-01-30T02:05:03;15.40;;;12.40;;
7657;SDS011;8462;53.156;8.220;2024-01-30T02:07:35;15.50;;;12.30;;
7657;SDS011;8462;53.156;8.220;2024-01-30T02:10:02;15.10;;;11.73;;
7657;SDS011;8462;53.156;8.220;2024-01-30T02:12:31;15.60;;;12.47;;
7657;SDS011;8462;53.156;8.220;2024-01-30T02:14:58;16.87;;;12.70;;
7657;SDS011;8462;53.156;8.220;2024-01-30T02:17:28;15.17;;;12.50;;
7657;SDS011;8462;53.156;8.220;2024-01-30T02:19:56;16.30;;;12.13;;
7657;SDS011;8462;53.156;8.220;2024-01-30T02:22:27;16.53;;;12.57;;
7657;SDS011;8462;53.156;8.220;2024-01-30T02:25:00;15.17;;;12.13;;
7657;SDS011;8462;53.156;8.220;2024-01-30T02:27:28;15.47;;;12.57;;
7657;SDS011;8462;53.156;8.220;2024-01-30T02:29:56;14.23;;;11.80;;
7657;SDS011;8462;53.156;8.220;2024-01-30T02:32:24;15.00;;;12.37;;
7657;SDS011;8462;53.156;8.220;2024-01-30T02:34:52;16.63;;;12.23;;
7657;SDS011;8462;53.156;8.220;2024-01-30T02:37:22;15.33;;;13.40;;
7657;SDS011;8462;53.156;8.220;2024-01-30T02:39:51;16.30;;;12.40;;
7657;SDS011;8462;53.156;8.220;2024-01-30T02:42:19;15.23;;;12.27;;
7657;SDS011;8462;53.156;8.220;2024-01-30T02:44:47;14.67;;;11.83;;
7657;SDS011;8462;53.156;8.220;2024-01-30T02:47:16;17.00;;;12.73;;
7657;SDS011;8462;53.156;8.220;2024-01-30T02:49:44;15.60;;;12.53;;
7657;SDS011;8462;53.156;8.220;2024-01-30T02:52:12;15.13;;;12.47;;
7657;SDS011;8462;53.156;8.220;2024-01-30T02:54:41;14.23;;;12.37;;
7657;SDS011;8462;53.156;8.220;2024-01-30T02:57:11;13.87;;;12.37;;
7657;SDS011;8462;53.156;8.220;2024-01-30T02:59:38;15.70;;;11.80;;
7657;SDS011;8462;53.156;8.220;2024-01-30T03:02:06;16.53;;;12.67;;
7657;SDS011;8462;53.156;8.220;2024-01-30T03:04:34;15.13;;;12.63;;
7657;SDS011;8462;53.156;8.220;2024-01-30T03:07:01;16.23;;;12.70;;
7657;SDS011;8462;53.156;8.220;2024-01-30T03:09:30;16.73;;;12.10;;
7657;SDS011;8462;53.156;8.220;2024-01-30T03:11:58;17.13;;;12.77;;
7657;SDS011;8462;53.156;8.220;2024-01-30T03:14:28;15.83;;;12.00;;
7657;SDS011;8462;53.156;8.220;2024-01-30T03:16:57;16.07;;;13.13;;
7657;SDS011;8462;53.156;8.220;2024-01-30T03:19:26;13.57;;;11.83;;
7657;SDS011;8462;53.156;8.220;2024-01-30T03:21:53;17.87;;;13.07;;
7657;SDS011;8462;53.156;8.220;2024-01-30T03:24:20;14.30;;;12.20;;
7657;SDS011;8462;53.156;8.220;2024-01-30T03:26:49;15.70;;;12.50;;
7657;SDS011;8462;53.156;8.220;2024-01-30T03:29:16;18.40;;;13.00;;
7657;SDS011;8462;53.156;8.220;2024-01-30T03:31:49;15.77;;;12.70;;
7657;SDS011;8462;53.156;8.220;2024-01-30T03:34:18;14.40;;;12.60;;
7657;SDS011;8462;53.156;8.220;2024-01-30T03:36:45;16.67;;;12.83;;
7657;SDS011;8462;53.156;8.220;2024-01-30T03:39:12;14.83;;;12.30;;
7657;SDS011;8462;53.156;8.220;2024-01-30T03:41:41;17.80;;;11.80;;
7657;SDS011;8462;53.156;8.220;2024-01-30T03:44:10;17.70;;;11.93;;
7657;SDS011;8462;53.156;8.220;2024-01-30T03:46:39;16.20;;;13.47;;
7657;SDS011;8462;53.156;8.220;2024-01-30T03:49:09;14.93;;;11.83;;
7657;SDS011;8462;53.156;8.220;2024-01-30T03:51:37;19.00;;;12.47;;
7657;SDS011;8462;53.156;8.220;2024-01-30T03:54:05;14.00;;;12.37;;
7657;SDS011;8462;53.156;8.220;2024-01-30T03:56:34;17.20;;;12.87;;
7657;SDS011;8462;53.156;8.220;2024-01-30T03:59:02;14.33;;;11.70;;
7657;SDS011;8462;53.156;8.220;2024-01-30T04:01:31;14.90;;;12.10;;
7657;SDS011;8462;53.156;8.220;2024-01-30T04:03:58;15.70;;;12.93;;
7657;SDS011;8462;53.156;8.220;2024-01-30T04:06:28;15.20;;;13.07;;
7657;SDS011;8462;53.156;8.220;2024-01-30T04:08:55;17.53;;;12.97;;
7657;SDS011;8462;53.156;8.220;2024-01-30T04:11:24;15.93;;;12.50;;
7657;SDS011;8462;53.156;8.220;2024-01-30T04:13:53;18.10;;;13.17;;
7657;SDS011;8462;53.156;8.220;2024-01-30T04:16:21;14.93;;;13.33;;
7657;SDS011;8462;53.156;8.220;2024-01-30T04:18:49;14.23;;;12.33;;
7657;SDS011;8462;53.156;8.220;2024-01-30T04:21:18;15.90;;;12.67;;
7657;SDS011;8462;53.156;8.220;2024-01-30T04:23:48;16.10;;;13.43;;
7657;SDS011;8462;53.156;8.220;2024-01-30T04:26:17;16.40;;;12.83;;
7657;SDS011;8462;53.156;8.220;2024-01-30T04:28:45;16.40;;;13.30;;
7657;SDS011;8462;53.156;8.220;2024-01-30T04:31:16;15.07;;;12.73;;
7657;SDS011;8462;53.156;8.220;2024-01-30T04:33:44;16.77;;;12.70;;
7657;SDS011;8462;53.156;8.220;2024-01-30T04:36:12;15.87;;;12.77;;
7657;SDS011;8462;53.156;8.220;2024-01-30T04:38:40;15.10;;;12.07;;
7657;SDS011;8462;53.156;8.220;2024-01-30T04:41:10;15.97;;;12.27;;
7657;SDS011;8462;53.156;8.220;2024-01-30T04:43:37;15.80;;;13.13;;
7657;SDS011;8462;53.156;8.220;2024-01-30T04:46:04;18.40;;;13.27;;
7657;SDS011;8462;53.156;8.220;2024-01-30T04:48:32;17.33;;;14.27;;
7657;SDS011;8462;53.156;8.220;2024-01-30T04:51:02;15.57;;;12.77;;
7657;SDS011;8462;53.156;8.220;2024-01-30T04:53:30;15.53;;;13.17;;
7657;SDS011;8462;53.156;8.220;2024-01-30T04:55:59;17.53;;;12.80;;
7657;SDS011;8462;53.156;8.220;2024-01-30T04:58:27;13.90;;;12.40;;
7657;SDS011;8462;53.156;8.220;2024-01-30T05:00:56;17.10;;;12.83;;
7657;SDS011;8462;53.156;8.220;2024-01-30T05:03:24;14.80;;;12.13;;
7657;SDS011;8462;53.156;8.220;2024-01-30T05:05:57;17.20;;;13.30;;
7657;SDS011;8462;53.156;8.220;2024-01-30T05:08:25;16.17;;;13.10;;
7657;SDS011;8462;53.156;8.220;2024-01-30T05:10:53;18.30;;;12.53;;
7657;SDS011;8462;53.156;8.220;2024-01-30T05:13:21;17.73;;;12.73;;
7657;SDS011;8462;53.156;8.220;2024-01-30T05:15:50;16.00;;;13.43;;
7657;SDS011;8462;53.156;8.220;2024-01-30T05:18:19;16.30;;;12.67;;
7657;SDS011;8462;53.156;8.220;2024-01-30T05:20:46;16.13;;;13.43;;
7657;SDS011;8462;53.156;8.220;2024-01-30T05:23:14;15.73;;;12.33;;
7657;SDS011;8462;53.156;8.220;2024-01-30T05:25:42;15.83;;;12.50;;
7657;SDS011;8462;53.156;8.220;2024-01-30T05:28:10;14.27;;;12.43;;
7657;SDS011;8462;53.156;8.220;2024-01-30T05:30:40;16.17;;;12.27;;
7657;SDS011;8462;53.156;8.220;2024-01-30T05:33:09;15.83;;;12.30;;
7657;SDS011;8462;53.156;8.220;2024-01-30T05:35:40;14.47;;;12.13;;
7657;SDS011;8462;53.156;8.220;2024-01-30T05:38:09;16.60;;;12.00;;
7657;SDS011;8462;53.156;8.220;2024-01-30T05:40:38;15.40;;;12.23;;
7657;SDS011;8462;53.156;8.220;2024-01-30T05:43:06;14.70;;;11.97;;
7657;SDS011;8462;53.156;8.220;2024-01-30T05:45:36;18.13;;;12.63;;
7657;SDS011;8462;53.156;8.220;2024-01-30T05:48:03;15.87;;;12.67;;
7657;SDS011;8462;53.156;8.220;2024-01-30T05:50:34;17.23;;;12.67;;
7657;SDS011;8462;53.156;8.220;2024-01-30T05:53:02;16.40;;;11.97;;
7657;SDS011;8462;53.156;8.220;2024-01-30T05:55:30;15.03;;;11.40;;
7657;SDS011;8462;53.156;8.220;2024-01-30T05:58:03;16.70;;;12.73;;
7657;SDS011;8462;53.156;8.220;2024-01-30T06:00:33;14.70;;;12.63;;
7657;SDS011;8462;53.156;8.220;2024-01-30T06:03:00;16.63;;;12.07;;
7657;SDS011;8462;53.156;8.220;2024-01-30T06:05:28;18.77;;;12.73;;
7657;SDS011;8462;53.156;8.220;2024-01-30T06:07:57;14.77;;;12.20;;
7657;SDS011;8462;53.156;8.220;2024-01-30T06:10:26;16.73;;;12.53;;
7657;SDS011;8462;53.156;8.220;2024-01-30T06:12:53;15.27;;;12.53;;
7657;SDS011;8462;53.156;8.220;2024-01-30T06:15:23;15.23;;;12.67;;
7657;SDS011;8462;53.156;8.220;2024-01-30T06:17:50;17.43;;;12.37;;
7657;SDS011;8462;53.156;8.220;2024-01-30T06:20:17;14.77;;;12.50;;
7657;SDS011;8462;53.156;8.220;2024-01-30T06:22:45;16.10;;;13.13;;
7657;SDS011;8462;53.156;8.220;2024-01-30T06:25:14;18.37;;;13.03;;
7657;SDS011;8462;53.156;8.220;2024-01-30T06:27:42;16.83;;;11.93;;
7657;SDS011;8462;53.156;8.220;2024-01-30T06:30:11;16.97;;;13.17;;
7657;SDS011;8462;53.156;8.220;2024-01-30T06:32:40;16.97;;;12.97;;
7657;SDS011;8462;53.156;8.220;2024-01-30T06:35:07;16.77;;;13.57;;
7657;SDS011;8462;53.156;8.220;2024-01-30T06:37:36;15.10;;;12.43;;
7657;SDS011;8462;53.156;8.220;2024-01-30T06:40:04;14.00;;;12.07;;
7657;SDS011;8462;53.156;8.220;2024-01-30T06:42:33;17.90;;;13.43;;
7657;SDS011;8462;53.156;8.220;2024-01-30T06:45:01;14.53;;;12.97;;
7657;SDS011;8462;53.156;8.220;2024-01-30T06:47:28;17.47;;;12.23;;
7657;SDS011;8462;53.156;8.220;2024-01-30T06:49:58;17.20;;;13.37;;
7657;SDS011;8462;53.156;8.220;2024-01-30T06:52:27;15.80;;;12.53;;
7657;SDS011;8462;53.156;8.220;2024-01-30T06:54:56;18.53;;;13.07;;
7657;SDS011;8462;53.156;8.220;2024-01-30T06:57:24;16.40;;;13.23;;
7657;SDS011;8462;53.156;8.220;2024-01-30T07:00:02;18.60;;;13.23;;
7657;SDS011;8462;53.156;8.220;2024-01-30T07:02:30;20.20;;;13.23;;
7657;SDS011;8462;53.156;8.220;2024-01-30T07:05:03;15.20;;;13.17;;
7657;SDS011;8462;53.156;8.220;2024-01-30T07:07:31;16.53;;;12.00;;
7657;SDS011;8462;53.156;8.220;2024-01-30T07:09:59;15.17;;;12.57;;
7657;SDS011;8462;53.156;8.220;2024-01-30T07:12:27;17.40;;;12.63;;
7657;SDS011;8462;53.156;8.220;2024-01-30T07:14:57;18.23;;;13.53;;
7657;SDS011;8462;53.156;8.220;2024-01-30T07:17:27;16.93;;;12.70;;
7657;SDS011;8462;53.156;8.220;2024-01-30T07:19:59;14.70;;;12.23;;
7657;SDS011;8462;53.156;8.220;2024-01-30T07:22:29;16.17;;;11.60;;
7657;SDS011;8462;53.156;8.220;2024-01-30T07:24:56;17.00;;;12.33;;
7657;SDS011;8462;53.156;8.220;2024-01-30T07:27:24;15.67;;;13.17;;
7657;SDS011;8462;53.156;8.220;2024-01-30T07:29:51;17.53;;;12.97;;
7657;SDS011;8462;53.156;8.220;2024-01-30T07:32:19;16.90;;;12.00;;
7657;SDS011;8462;53.156;8.220;2024-01-30T07:34:48;14.90;;;12.03;;
7657;SDS011;8462;53.156;8.220;2024-01-30T07:37:16;15.30;;;11.27;;
7657;SDS011;8462;53.156;8.220;2024-01-30T07:39:46;15.87;;;12.33;;
7657;SDS011;8462;53.156;8.220;2024-01-30T07:42:13;15.20;;;12.67;;
7657;SDS011;8462;53.156;8.220;2024-01-30T07:44:46;17.30;;;11.93;;
7657;SDS011;8462;53.156;8.220;2024-01-30T07:47:13;17.10;;;12.87;;
7657;SDS011;8462;53.156;8.220;2024-01-30T07:49:41;15.90;;;12.00;;
7657;SDS011;8462;53.156;8.220;2024-01-30T07:52:15;15.17;;;11.83;;
7657;SDS011;8462;53.156;8.220;2024-01-30T07:54:43;15.13;;;12.33;;
7657;SDS011;8462;53.156;8.220;2024-01-30T07:57:12;17.87;;;11.90;;
7657;SDS011;8462;53.156;8.220;2024-01-30T07:59:41;14.17;;;11.70;;
7657;SDS011;8462;53.156;8.220;2024-01-30T08:02:10;16.53;;;12.93;;
7657;SDS011;8462;53.156;8.220;2024-01-30T08:04:39;17.77;;;11.83;;
7657;SDS011;8462;53.156;8.220;2024-01-30T08:07:07;12.63;;;10.57;;
7657;SDS011;8462;53.156;8.220;2024-01-30T08:09:37;14.80;;;10.80;;
7657;SDS011;8462;53.156;8.220;2024-01-30T08:12:05;15.70;;;10.90;;
7657;SDS011;8462;53.156;8.220;2024-01-30T08:14:33;15.70;;;11.67;;
7657;SDS011;8462;53.156;8.220;2024-01-30T08:17:01;20.07;;;11.57;;
7657;SDS011;8462;53.156;8.220;2024-01-30T08:19:29;14.07;;;11.37;;
7657;SDS011;8462;53.156;8.220;2024-01-30T08:21:58;16.10;;;11.90;;
7657;SDS011;8462;53.156;8.220;2024-01-30T08:24:28;16.13;;;11.83;;
7657;SDS011;8462;53.156;8.220;2024-01-30T08:26:56;15.40;;;11.27;;
7657;SDS011;8462;53.156;8.220;2024-01-30T08:29:24;15.60;;;11.03;;
7657;SDS011;8462;53.156;8.220;2024-01-30T08:31:52;13.07;;;10.70;;
7657;SDS011;8462;53.156;8.220;2024-01-30T08:34:21;13.97;;;10.67;;
7657;SDS011;8462;53.156;8.220;2024-01-30T08:36:48;15.90;;;11.10;;
7657;SDS011;8462;53.156;8.220;2024-01-30T08:39:16;12.50;;;10.83;;
7657;SDS011;8462;53.156;8.220;2024-01-30T08:41:44;14.07;;;11.00;;
7657;SDS011;8462;53.156;8.220;2024-01-30T08:44:14;15.47;;;11.17;;
7657;SDS011;8462;53.156;8.220;2024-01-30T08:46:42;13.50;;;10.10;;
7657;SDS011;8462;53.156;8.220;2024-01-30T08:49:13;14.07;;;10.63;;
7657;SDS011;8462;53.156;8.220;2024-01-30T08:51:41;13.10;;;10.83;;
7657;SDS011;8462;53.156;8.220;2024-01-30T08:54:09;16.30;;;11.00;;
7657;SDS011;8462;53.156;8.220;2024-01-30T08:56:37;11.70;;;10.17;;
7657;SDS011;8462;53.156;8.220;2024-01-30T08:59:05;12.47;;;9.50;;
7657;SDS011;8462;53.156;8.220;2024-01-30T09:01:35;12.30;;;9.37;;
7657;SDS011;8462;53.156;8.220;2024-01-30T09:04:04;11.63;;;10.17;;
7657;SDS011;8462;53.156;8.220;2024-01-30T09:06:32;12.07;;;10.17;;
7657;SDS011;8462;53.156;8.220;2024-01-30T09:09:03;12.73;;;9.83;;
7657;SDS011;8462;53.156;8.220;2024-01-30T09:11:42;13.73;;;10.97;;
7657;SDS011;8462;53.156;8.220;2024-01-30T09:14:11;11.27;;;9.00;;
7657;SDS011;8462;53.156;8.220;2024-01-30T09:16:40;11.73;;;9.20;;
7657;SDS011;8462;53.156;8.220;2024-01-30T09:19:08;13.97;;;8.87;;
7657;SDS011;8462;53.156;8.220;2024-01-30T09:21:36;11.53;;;8.73;;
7657;SDS011;8462;53.156;8.220;2024-01-30T09:24:04;12.87;;;9.00;;
7657;SDS011;8462;53.156;8.220;2024-01-30T09:26:31;11.00;;;9.57;;
7657;SDS011;8462;53.156;8.220;2024-01-30T09:28:59;10.83;;;8.97;;
7657;SDS011;8462;53.156;8.220;2024-01-30T09:31:27;12.23;;;8.77;;
7657;SDS011;8462;53.156;8.220;2024-01-30T09:33:58;10.97;;;8.93;;
7657;SDS011;8462;53.156;8.220;2024-01-30T09:36:26;12.50;;;9.40;;
7657;SDS011;8462;53.156;8.220;2024-01-30T09:38:55;10.93;;;9.03;;
7657;SDS011;8462;53.156;8.220;2024-01-30T09:41:24;12.87;;;8.93;;
7657;SDS011;8462;53.156;8.220;2024-01-30T09:43:51;12.00;;;8.97;;
7657;SDS011;8462;53.156;8.220;2024-01-30T09:46:24;10.97;;;9.10;;
7657;SDS011;8462;53.156;8.220;2024-01-30T09:48:59;10.87;;;9.40;;
7657;SDS011;8462;53.156;8.220;2024-01-30T09:51:29;11.07;;;8.30;;
7657;SDS011;8462;53.156;8.220;2024-01-30T09:53:57;12.73;;;9.10;;
7657;SDS011;8462;53.156;8.220;2024-01-30T09:56:26;9.53;;;8.53;;
7657;SDS011;8462;53.156;8.220;2024-01-30T09:58:55;11.30;;;8.70;;
7657;SDS011;8462;53.156;8.220;2024-01-30T10:01:23;12.80;;;9.50;;
7657;SDS011;8462;53.156;8.220;2024-01-30T10:03:53;11.23;;;9.17;;
7657;SDS011;8462;53.156;8.220;2024-01-30T10:06:22;12.43;;;8.70;;
7657;SDS011;8462;53.156;8.220;2024-01-30T10:08:53;12.10;;;8.80;;
7657;SDS011;8462;53.156;8.220;2024-01-30T10:11:20;13.30;;;8.93;;
7657;SDS011;8462;53.156;8.220;2024-01-30T10:13:53;12.43;;;9.20;;
7657;SDS011;8462;53.156;8.220;2024-01-30T10:16:21;11.30;;;8.57;;
7657;SDS011;8462;53.156;8.220;2024-01-30T10:18:49;10.50;;;8.60;;
7657;SDS011;8462;53.156;8.220;2024-01-30T10:21:18;9.97;;;8.53;;
7657;SDS011;8462;53.156;8.220;2024-01-30T10:23:46;13.43;;;8.60;;
7657;SDS011;8462;53.156;8.220;2024-01-30T10:26:15;9.93;;;8.07;;
7657;SDS011;8462;53.156;8.220;2024-01-30T10:28:44;12.17;;;8.70;;
7657;SDS011;8462;53.156;8.220;2024-01-30T10:31:16;10.07;;;8.13;;
7657;SDS011;8462;53.156;8.220;2024-01-30T10:33:45;14.20;;;8.77;;
7657;SDS011;8462;53.156;8.220;2024-01-30T10:36:13;9.07;;;8.17;;
7657;SDS011;8462;53.156;8.220;2024-01-30T10:38:48;10.50;;;8.60;;
7657;SDS011;8462;53.156;8.220;2024-01-30T10:41:22;13.43;;;8.90;;
7657;SDS011;8462;53.156;8.220;2024-01-30T10:43:54;9.87;;;7.97;;
7657;SDS011;8462;53.156;8.220;2024-01-30T10:46:31;11.43;;;9.23;;
7657;SDS011;8462;53.156;8.220;2024-01-30T10:49:00;11.13;;;7.53;;
7657;SDS011;8462;53.156;8.220;2024-01-30T10:51:29;10.07;;;8.57;;
7657;SDS011;8462;53.156;8.220;2024-01-30T10:53:59;9.60;;;8.03;;
7657;SDS011;8462;53.156;8.220;2024-01-30T10:56:28;17.80;;;8.30;;
7657;SDS011;8462;53.156;8.220;2024-01-30T10:58:58;9.73;;;7.77;;
7657;SDS011;8462;53.156;8.220;2024-01-30T11:01:27;11.80;;;8.83;;
7657;SDS011;8462;53.156;8.220;2024-01-30T11:04:01;11.80;;;9.10;;
7657;SDS011;8462;53.156;8.220;2024-01-30T11:06:29;11.37;;;7.90;;
7657;SDS011;8462;53.156;8.220;2024-01-30T11:09:03;14.17;;;9.67;;
7657;SDS011;8462;53.156;8.220;2024-01-30T11:11:47;12.63;;;9.33;;
7657;SDS011;8462;53.156;8.220;2024-01-30T11:14:16;11.13;;;8.57;;
7657;SDS011;8462;53.156;8.220;2024-01-30T11:16:49;9.57;;;7.90;;
7657;SDS011;8462;53.156;8.220;2024-01-30T11:19:22;12.07;;;8.63;;
7657;SDS011;8462;53.156;8.220;2024-01-30T11:21:51;14.67;;;8.63;;
7657;SDS011;8462;53.156;8.220;2024-01-30T11:24:22;10.53;;;8.67;;
7657;SDS011;8462;53.156;8.220;2024-01-30T11:26:55;10.20;;;8.27;;
7657;SDS011;8462;53.156;8.220;2024-01-30T11:29:24;9.97;;;7.87;;
7657;SDS011;8462;53.156;8.220;2024-01-30T11:31:51;11.13;;;8.10;;
7657;SDS011;8462;53.156;8.220;2024-01-30T11:34:20;10.67;;;7.77;;
7657;SDS011;8462;53.156;8.220;2024-01-30T11:36:48;10.93;;;8.73;;
7657;SDS011;8462;53.156;8.220;2024-01-30T11:39:23;12.33;;;8.07;;
7657;SDS011;8462;53.156;8.220;2024-01-30T11:41:52;13.13;;;7.80;;
7657;SDS011;8462;53.156;8.220;2024-01-30T11:44:22;9.07;;;7.67;;
7657;SDS011;8462;53.156;8.220;2024-01-30T11:46:50;12.30;;;8.53;;
7657;SDS011;8462;53.156;8.220;2024-01-30T11:49:19;9.67;;;7.13;;
7657;SDS011;8462;53.156;8.220;2024-01-30T11:51:47;11.63;;;8.63;;
7657;SDS011;8462;53.156;8.220;2024-01-30T11:54:15;13.00;;;8.67;;
7657;SDS011;8462;53.156;8.220;2024-01-30T11:56:45;11.00;;;7.93;;
7657;SDS011;8462;53.156;8.220;2024-01-30T11:59:13;11.17;;;8.00;;
7657;SDS011;8462;53.156;8.220;2024-01-30T12:01:41;11.33;;;8.73;;
7657;SDS011;8462;53.156;8.220;2024-01-30T12:04:10;15.03;;;8.47;;
7657;SDS011;8462;53.156;8.220;2024-01-30T12:06:38;10.90;;;7.93;;
7657;SDS011;8462;53.156;8.220;2024-01-30T12:09:08;15.07;;;8.63;;
7657;SDS011;8462;53.156;8.220;2024-01-30T12:11:45;13.07;;;8.83;;
7657;SDS011;8462;53.156;8.220;2024-01-30T12:14:12;10.33;;;8.07;;
7657;SDS011;8462;53.156;8.220;2024-01-30T12:16:41;11.30;;;8.17;;
7657;SDS011;8462;53.156;8.220;2024-01-30T12:19:09;10.43;;;8.60;;
7657;SDS011;8462;53.156;8.220;2024-01-30T12:21:38;9.07;;;8.00;;
7657;SDS011;8462;53.156;8.220;2024-01-30T12:24:05;11.57;;;8.73;;
7657;SDS011;8462;53.156;8.220;2024-01-30T12:26:39;11.77;;;8.50;;
7657;SDS011;8462;53.156;8.220;2024-01-30T12:29:10;10.47;;;8.20;;
7657;SDS011;8462;53.156;8.220;2024-01-30T12:31:38;11.97;;;8.40;;
7657;SDS011;8462;53.156;8.220;2024-01-30T12:34:09;12.40;;;8.43;;
7657;SDS011;8462;53.156;8.220;2024-01-30T12:36:42;9.23;;;8.03;;
7657;SDS011;8462;53.156;8.220;2024-01-30T12:39:10;11.60;;;8.53;;
7657;SDS011;8462;53.156;8.220;2024-01-30T12:41:38;10.13;;;8.20;;
7657;SDS011;8462;53.156;8.220;2024-01-30T12:44:07;10.93;;;8.57;;
7657;SDS011;8462;53.156;8.220;2024-01-30T12:46:36;13.10;;;9.47;;
7657;SDS011;8462;53.156;8.220;2024-01-30T12:49:05;14.23;;;8.87;;
7657;SDS011;8462;53.156;8.220;2024-01-30T12:51:35;11.67;;;8.17;;
7657;SDS011;8462;53.156;8.220;2024-01-30T12:54:05;10.37;;;8.20;;
7657;SDS011;8462;53.156;8.220;2024-01-30T12:56:32;9.83;;;8.13;;
7657;SDS011;8462;53.156;8.220;2024-01-30T12:58:59;12.00;;;8.57;;
7657;SDS011;8462;53.156;8.220;2024-01-30T13:01:27;15.80;;;8.93;;
7657;SDS011;8462;53.156;8.220;2024-01-30T13:03:56;12.97;;;8.33;;
7657;SDS011;8462;53.156;8.220;2024-01-30T13:06:24;13.47;;;8.80;;
7657;SDS011;8462;53.156;8.220;2024-01-30T13:08:53;12.73;;;8.37;;
7657;SDS011;8462;53.156;8.220;2024-01-30T13:11:21;12.13;;;8.70;;
7657;SDS011;8462;53.156;8.220;2024-01-30T13:13:51;11.30;;;8.90;;
7657;SDS011;8462;53.156;8.220;2024-01-30T13:16:19;10.53;;;8.17;;
7657;SDS011;8462;53.156;8.220;2024-01-30T13:18:48;10.37;;;8.33;;
7657;SDS011;8462;53.156;8.220;2024-01-30T13:21:18;11.67;;;8.83;;
7657;SDS011;8462;53.156;8.220;2024-01-30T13:23:45;11.93;;;8.70;;
7657;SDS011;8462;53.156;8.220;2024-01-30T13:26:12;12.40;;;8.50;;
7657;SDS011;8462;53.156;8.220;2024-01-30T13:28:40;13.53;;;8.83;;
7657;SDS011;8462;53.156;8.220;2024-01-30T13:31:07;15.43;;;9.00;;
7657;SDS011;8462;53.156;8.220;2024-01-30T13:33:35;13.10;;;8.50;;
7657;SDS011;8462;53.156;8.220;2024-01-30T13:36:03;12.83;;;8.43;;
7657;SDS011;8462;53.156;8.220;2024-01-30T13:38:34;12.73;;;8.87;;
7657;SDS011;8462;53.156;8.220;2024-01-30T13:41:03;12.80;;;9.27;;
7657;SDS011;8462;53.156;8.220;2024-01-30T13:43:30;11.60;;;9.10;;
7657;SDS011;8462;53.156;8.220;2024-01-30T13:45:59;15.13;;;9.27;;
7657;SDS011;8462;53.156;8.220;2024-01-30T13:48:26;12.07;;;8.90;;
7657;SDS011;8462;53.156;8.220;2024-01-30T13:50:56;12.60;;;9.30;;
7657;SDS011;8462;53.156;8.220;2024-01-30T13:53:24;11.10;;;8.83;;
7657;SDS011;8462;53.156;8.220;2024-01-30T13:55:52;13.60;;;9.17;;
7657;SDS011;8462;53.156;8.220;2024-01-30T13:58:20;13.90;;;9.53;;
7657;SDS011;8462;53.156;8.220;2024-01-30T14:00:48;10.37;;;9.23;;
7657;SDS011;8462;53.156;8.220;2024-01-30T14:03:15;11.57;;;8.50;;
7657;SDS011;8462;53.156;8.220;2024-01-30T14:05:44;15.27;;;10.47;;
7657;SDS011;8462;53.156;8.220;2024-01-30T14:08:11;10.37;;;8.00;;
7657;SDS011;8462;53.156;8.220;2024-01-30T14:10:39;10.90;;;8.17;;
7657;SDS011;8462;53.156;8.220;2024-01-30T14:13:08;12.33;;;8.27;;
7657;SDS011;8462;53.156;8.220;2024-01-30T14:15:37;15.60;;;8.03;;
7657;SDS011;8462;53.156;8.220;2024-01-30T14:18:06;14.00;;;8.70;;
7657;SDS011;8462;53.156;8.220;2024-01-30T14:20:37;11.27;;;8.80;;
7657;SDS011;8462;53.156;8.220;2024-01-30T14:23:06;10.70;;;8.23;;
7657;SDS011;8462;53.156;8.220;2024-01-30T14:25:36;12.50;;;8.50;;
7657;SDS011;8462;53.156;8.220;2024-01-30T14:28:04;11.00;;;8.63;;
7657;SDS011;8462;53.156;8.220;2024-01-30T14:30:34;10.17;;;7.93;;
7657;SDS011;8462;53.156;8.220;2024-01-30T14:33:01;9.43;;;7.67;;
7657;SDS011;8462;53.156;8.220;2024-01-30T14:35:29;10.80;;;8.43;;
7657;SDS011;8462;53.156;8.220;2024-01-30T14:37:57;13.50;;;8.83;;
7657;SDS011;8462;53.156;8.220;2024-01-30T14:40:26;12.23;;;8.70;;
7657;SDS011;8462;53.156;8.220;2024-01-30T14:42:53;13.50;;;8.83;;
7657;SDS011;8462;53.156;8.220;2024-01-30T14:45:22;11.23;;;8.27;;
7657;SDS011;8462;53.156;8.220;2024-01-30T14:47:51;13.53;;;8.33;;
7657;SDS011;8462;53.156;8.220;2024-01-30T14:50:21;12.60;;;8.27;;
7657;SDS011;8462;53.156;8.220;2024-01-30T14:52:49;15.30;;;8.07;;
7657;SDS011;8462;53.156;8.220;2024-01-30T14:55:17;10.63;;;8.50;;
7657;SDS011;8462;53.156;8.220;2024-01-30T14:57:45;11.53;;;8.30;;
7657;SDS011;8462;53.156;8.220;2024-01-30T15:00:14;12.60;;;8.27;;
7657;SDS011;8462;53.156;8.220;2024-01-30T15:02:42;10.27;;;8.20;;